Time,TemperatureF,DewpointF,PressureIn,WindDirection,WindDirectionDegrees,WindSpeedMPH,WindSpeedGustMPH,Humidity,HourlyPrecipIn,Conditions,Clouds,dailyrainin,SoftwareType,DateUTC
2013-07-25 00:11:00,53.0,51.0,29.86,ENE,76,0.0,-999.0,91,-99.99,,,0.00,weatherlink.com 1.10,2013-07-25 04:11:00,
2013-07-25 00:26:00,53.1,51.0,29.86,ENE,76,1.0,-999.0,91,-99.99,,,0.00,weatherlink.com 1.10,2013-07-25 04:26:00,
2013-07-25 00:41:00,52.9,50.0,29.86,ENE,76,3.0,-999.0,90,-99.99,,,0.00,weatherlink.com 1.10,2013-07-25 04:41:00,
2013-07-25 00:56:00,52.5,50.0,29.86,ENE,76,0.0,-999.0,90,-99.99,,,0.00,weatherlink.com 1.10,2013-07-25 04:56:00,
2013-07-25 01:11:00,52.2,49.0,29.86,East,88,3.0,-999.0,90,-99.99,,,0.00,weatherlink.com 1.10,2013-07-25 05:11:00,
2013-07-25 01:26:00,53.4,52.0,29.86,SSE,167,0.0,-999.0,93,-99.99,,,0.00,weatherlink.com 1.10,2013-07-25 05:26:00,
2013-07-25 01:41:00,53.9,52.0,29.86,SSE,167,3.0,-999.0,92,-99.99,,,0.00,weatherlink.com 1.10,2013-07-25 05:41:00,
2013-07-25 02:11:00,53.5,52.0,29.85,SSE,167,0.0,-999.0,94,-99.99,,,0.00,weatherlink.com 1.10,2013-07-25 06:11:00,
2013-07-25 02:26:00,53.0,51.0,29.85,SSE,167,0.0,-999.0,93,-99.99,,,0.00,weatherlink.com 1.10,2013-07-25 06:26:00,
2013-07-25 02:41:00,52.7,51.0,29.85,SSE,167,0.0,-999.0,94,-99.99,,,0.00,weatherlink.com 1.10,2013-07-25 06:41:00,
2013-07-25 02:56:00,52.5,51.0,29.84,SSE,167,0.0,-999.0,93,-99.99,,,0.00,weatherlink.com 1.10,2013-07-25 06:56:00,
2013-07-25 03:11:00,52.4,50.0,29.85,SSE,167,2.0,-999.0,92,-99.99,,,0.00,weatherlink.com 1.10,2013-07-25 07:11:00,
2013-07-25 03:26:00,51.9,49.0,29.85,East,88,2.0,-999.0,91,-99.99,,,0.00,weatherlink.com 1.10,2013-07-25 07:26:00,
2013-07-25 03:41:00,51.8,48.0,29.85,East,88,0.0,-999.0,87,-99.99,,,0.00,weatherlink.com 1.10,2013-07-25 07:41:00,
2013-07-25 03:56:00,51.7,48.0,29.86,East,88,0.0,-999.0,86,-99.99,,,0.00,weatherlink.com 1.10,2013-07-25 07:56:00,
2013-07-25 04:11:00,51.7,47.0,29.86,East,88,0.0,-999.0,85,-99.99,,,0.00,weatherlink.com 1.10,2013-07-25 08:11:00,
2013-07-25 04:26:00,51.7,47.0,29.87,East,88,0.0,-999.0,85,-99.99,,,0.00,weatherlink.com 1.10,2013-07-25 08:26:00,
2013-07-25 04:41:00,51.8,47.0,29.87,East,88,0.0,-999.0,84,-99.99,,,0.00,weatherlink.com 1.10,2013-07-25 08:41:00,
2013-07-25 05:11:00,51.6,48.0,29.87,East,88,0.0,-999.0,87,-99.99,,,0.00,weatherlink.com 1.10,2013-07-25 09:11:00,
2013-07-25 05:26:00,51.3,48.0,29.87,East,88,2.0,-999.0,88,-99.99,,,0.00,weatherlink.com 1.10,2013-07-25 09:26:00,
2013-07-25 05:41:00,51.2,48.0,29.87,ESE,118,1.0,-999.0,88,-99.99,,,0.00,weatherlink.com 1.10,2013-07-25 09:41:00,
2013-07-25 05:56:00,51.1,48.0,29.87,SE,132,4.0,-999.0,89,-99.99,,,0.00,weatherlink.com 1.10,2013-07-25 09:56:00,
2013-07-25 06:11:00,50.9,49.0,29.87,SE,128,5.0,-999.0,93,-99.99,,,0.00,weatherlink.com 1.10,2013-07-25 10:11:00,
2013-07-25 06:41:00,51.2,49.0,29.88,SE,138,1.0,-999.0,93,-99.99,,,0.00,weatherlink.com 1.10,2013-07-25 10:41:00,
2013-07-25 06:56:00,51.7,50.0,29.88,SE,138,0.0,-999.0,93,-99.99,,,0.00,weatherlink.com 1.10,2013-07-25 10:56:00,
2013-07-25 07:11:00,52.6,51.0,29.88,SSE,150,0.0,-999.0,93,-99.99,,,0.00,weatherlink.com 1.10,2013-07-25 11:11:00,
2013-07-25 07:26:00,53.2,51.0,29.89,SSE,154,2.0,-999.0,93,-99.99,,,0.00,weatherlink.com 1.10,2013-07-25 11:26:00,
2013-07-25 07:41:00,54.0,52.0,29.89,SSE,154,1.0,-999.0,93,-99.99,,,0.00,weatherlink.com 1.10,2013-07-25 11:41:00,
2013-07-25 07:56:00,54.6,53.0,29.90,SW,217,4.0,-999.0,93,-99.99,,,0.00,weatherlink.com 1.10,2013-07-25 11:56:00,
2013-07-25 08:11:00,54.2,52.0,29.90,SW,222,4.0,-999.0,93,-99.99,,,0.00,weatherlink.com 1.10,2013-07-25 12:11:00,
2013-07-25 08:42:00,55.9,53.0,29.90,SW,227,6.0,-999.0,90,-99.99,,,0.00,weatherlink.com 1.10,2013-07-25 12:42:00,
2013-07-25 08:56:00,56.0,53.0,29.90,SW,223,3.0,-999.0,89,-99.99,,,0.00,weatherlink.com 1.10,2013-07-25 12:56:00,
2013-07-25 09:11:00,56.3,54.0,29.91,SW,234,8.0,-999.0,91,-99.99,,,0.00,weatherlink.com 1.10,2013-07-25 13:11:00,
2013-07-25 09:27:00,57.3,54.0,29.91,WSW,238,7.0,-999.0,87,-99.99,,,0.00,weatherlink.com 1.10,2013-07-25 13:27:00,
2013-07-25 09:42:00,56.2,53.0,29.91,SW,229,6.0,-999.0,90,-99.99,,,0.00,weatherlink.com 1.10,2013-07-25 13:42:00,
2013-07-25 09:57:00,55.8,53.0,29.92,WSW,238,4.0,-999.0,91,-99.99,,,0.00,weatherlink.com 1.10,2013-07-25 13:57:00,
2013-07-25 10:12:00,57.5,54.0,29.92,SW,230,4.0,-999.0,87,-99.99,,,0.00,weatherlink.com 1.10,2013-07-25 14:12:00,
2013-07-25 10:27:00,59.4,54.0,29.93,SW,229,13.0,-999.0,83,-99.99,,,0.00,weatherlink.com 1.10,2013-07-25 14:27:00,
2013-07-25 10:42:00,58.0,53.0,29.93,WSW,241,6.0,-999.0,84,-99.99,,,0.00,weatherlink.com 1.10,2013-07-25 14:42:00,
2013-07-25 10:57:00,60.6,53.0,29.93,WSW,243,6.0,-999.0,76,-99.99,,,0.00,weatherlink.com 1.10,2013-07-25 14:57:00,
2013-07-25 11:12:00,61.1,52.0,29.94,SW,217,6.0,-999.0,72,-99.99,,,0.00,weatherlink.com 1.10,2013-07-25 15:12:00,
2013-07-25 11:27:00,61.9,53.0,29.94,West,259,9.0,-999.0,72,-99.99,,,0.00,weatherlink.com 1.10,2013-07-25 15:27:00,
2013-07-25 11:42:00,61.1,52.0,29.94,West,259,5.0,-999.0,71,-99.99,,,0.00,weatherlink.com 1.10,2013-07-25 15:42:00,
2013-07-25 11:57:00,62.9,52.0,29.94,WNW,288,4.0,-999.0,67,-99.99,,,0.00,weatherlink.com 1.10,2013-07-25 15:57:00,
2013-07-25 12:12:00,61.0,52.0,29.94,NW,321,6.0,-999.0,71,-99.99,,,0.00,weatherlink.com 1.10,2013-07-25 16:12:00,
2013-07-25 12:27:00,62.5,51.0,29.94,WSW,244,4.0,-999.0,67,-99.99,,,0.00,weatherlink.com 1.10,2013-07-25 16:27:00,
2013-07-25 12:42:00,62.3,51.0,29.94,SW,233,7.0,-999.0,66,-99.99,,,0.00,weatherlink.com 1.10,2013-07-25 16:42:00,
2013-07-25 12:57:00,65.2,53.0,29.94,WSW,246,6.0,-999.0,64,-99.99,,,0.00,weatherlink.com 1.10,2013-07-25 16:57:00,
2013-07-25 13:12:00,64.8,54.0,29.95,NW,322,2.0,-999.0,67,-99.99,,,0.00,weatherlink.com 1.10,2013-07-25 17:12:00,
2013-07-25 13:27:00,66.0,52.0,29.95,SW,217,9.0,-999.0,62,-99.99,,,0.00,weatherlink.com 1.10,2013-07-25 17:27:00,
2013-07-25 13:42:00,67.4,53.0,29.95,WNW,289,7.0,-999.0,60,-99.99,,,0.00,weatherlink.com 1.10,2013-07-25 17:42:00,
2013-07-25 13:57:00,67.4,53.0,29.95,West,267,5.0,-999.0,61,-99.99,,,0.00,weatherlink.com 1.10,2013-07-25 17:57:00,
2013-07-25 14:12:00,66.6,53.0,29.95,WSW,251,9.0,-999.0,63,-99.99,,,0.00,weatherlink.com 1.10,2013-07-25 18:12:00,
2013-07-25 14:27:00,66.8,53.0,29.95,WSW,249,5.0,-999.0,62,-99.99,,,0.00,weatherlink.com 1.10,2013-07-25 18:27:00,
2013-07-25 14:42:00,66.3,53.0,29.95,West,267,3.0,-999.0,63,-99.99,,,0.00,weatherlink.com 1.10,2013-07-25 18:42:00,
2013-07-25 14:57:00,67.2,53.0,29.96,WNW,290,6.0,-999.0,60,-99.99,,,0.00,weatherlink.com 1.10,2013-07-25 18:57:00,
2013-07-25 15:12:00,65.2,53.0,29.96,WSW,252,11.0,-999.0,64,-99.99,,,0.00,weatherlink.com 1.10,2013-07-25 19:12:00,
2013-07-25 15:28:00,66.5,52.0,29.96,WNW,284,8.0,-999.0,61,-99.99,,,0.00,weatherlink.com 1.10,2013-07-25 19:28:00,
2013-07-25 15:42:00,66.5,54.0,29.96,West,272,7.0,-999.0,65,-99.99,,,0.00,weatherlink.com 1.10,2013-07-25 19:42:00,
2013-07-25 15:58:00,66.7,54.0,29.96,NW,311,6.0,-999.0,64,-99.99,,,0.00,weatherlink.com 1.10,2013-07-25 19:58:00,
2013-07-25 16:12:00,65.8,54.0,29.96,West,281,6.0,-999.0,66,-99.99,,,0.00,weatherlink.com 1.10,2013-07-25 20:12:00,
2013-07-25 16:27:00,67.6,55.0,29.96,West,259,1.0,-999.0,64,-99.99,,,0.00,weatherlink.com 1.10,2013-07-25 20:27:00,
2013-07-25 16:42:00,66.0,53.0,29.96,NNW,333,4.0,-999.0,64,-99.99,,,0.00,weatherlink.com 1.10,2013-07-25 20:42:00,
2013-07-25 16:57:00,65.9,54.0,29.96,NW,313,10.0,-999.0,66,-99.99,,,0.00,weatherlink.com 1.10,2013-07-25 20:57:00,
2013-07-25 17:12:00,64.5,54.0,29.97,NW,316,6.0,-999.0,68,-99.99,,,0.00,weatherlink.com 1.10,2013-07-25 21:12:00,
2013-07-25 17:27:00,65.0,54.0,29.97,WNW,296,0.0,-999.0,68,-99.99,,,0.00,weatherlink.com 1.10,2013-07-25 21:27:00,
2013-07-25 17:42:00,62.4,54.0,29.97,WNW,290,5.0,-999.0,73,-99.99,,,0.00,weatherlink.com 1.10,2013-07-25 21:42:00,
2013-07-25 17:57:00,63.1,54.0,29.98,WNW,288,7.0,-999.0,73,-99.99,,,0.00,weatherlink.com 1.10,2013-07-25 21:57:00,
2013-07-25 18:12:00,62.6,53.0,29.98,NNW,342,7.0,-999.0,71,-99.99,,,0.00,weatherlink.com 1.10,2013-07-25 22:12:00,
2013-07-25 18:27:00,61.4,54.0,29.98,NNW,327,4.0,-999.0,76,-99.99,,,0.00,weatherlink.com 1.10,2013-07-25 22:27:00,
2013-07-25 18:42:00,61.5,54.0,29.98,NW,304,9.0,-999.0,75,-99.99,,,0.00,weatherlink.com 1.10,2013-07-25 22:42:00,
2013-07-25 18:57:00,61.6,54.0,29.98,WNW,292,1.0,-999.0,77,-99.99,,,0.00,weatherlink.com 1.10,2013-07-25 22:57:00,
2013-07-25 19:12:00,61.2,54.0,29.98,WNW,299,5.0,-999.0,78,-99.99,,,0.00,weatherlink.com 1.10,2013-07-25 23:12:00,
2013-07-25 19:27:00,60.5,54.0,29.99,West,267,2.0,-999.0,78,-99.99,,,0.00,weatherlink.com 1.10,2013-07-25 23:27:00,
2013-07-25 19:42:00,59.5,54.0,29.99,West,275,10.0,-999.0,81,-99.99,,,0.00,weatherlink.com 1.10,2013-07-25 23:42:00,
2013-07-25 19:57:00,58.9,53.0,29.99,WNW,284,8.0,-999.0,81,-99.99,,,0.00,weatherlink.com 1.10,2013-07-25 23:57:00,
2013-07-25 20:12:00,57.9,53.0,30.00,WNW,284,2.0,-999.0,83,-99.99,,,0.00,weatherlink.com 1.10,2013-07-26 00:12:00,
2013-07-25 20:28:00,56.3,52.0,30.00,WSW,256,2.0,-999.0,86,-99.99,,,0.00,weatherlink.com 1.10,2013-07-26 00:28:00,
2013-07-25 20:43:00,55.3,52.0,30.00,WNW,284,1.0,-999.0,88,-99.99,,,0.00,weatherlink.com 1.10,2013-07-26 00:43:00,
2013-07-25 20:57:00,54.9,52.0,30.00,NW,315,0.0,-999.0,90,-99.99,,,0.00,weatherlink.com 1.10,2013-07-26 00:57:00,
2013-07-25 21:12:00,54.6,52.0,30.00,NW,305,4.0,-999.0,91,-99.99,,,0.00,weatherlink.com 1.10,2013-07-26 01:12:00,
2013-07-25 21:28:00,54.4,52.0,30.01,North,5,1.0,-999.0,90,-99.99,,,0.00,weatherlink.com 1.10,2013-07-26 01:28:00,
2013-07-25 21:43:00,54.1,51.0,30.02,North,350,1.0,-999.0,90,-99.99,,,0.00,weatherlink.com 1.10,2013-07-26 01:43:00,
2013-07-25 21:58:00,53.9,51.0,30.02,ENE,63,1.0,-999.0,91,-99.99,,,0.00,weatherlink.com 1.10,2013-07-26 01:58:00,
2013-07-25 22:13:00,53.8,51.0,30.03,NW,319,6.0,-999.0,91,-99.99,,,0.00,weatherlink.com 1.10,2013-07-26 02:13:00,
2013-07-25 22:28:00,53.6,51.0,30.03,NE,40,2.0,-999.0,90,-99.99,,,0.00,weatherlink.com 1.10,2013-07-26 02:28:00,
2013-07-25 22:43:00,52.9,51.0,30.03,NE,38,3.0,-999.0,92,-99.99,,,0.00,weatherlink.com 1.10,2013-07-26 02:43:00,
2013-07-25 22:58:00,52.5,51.0,30.03,North,351,6.0,-999.0,93,-99.99,,,0.00,weatherlink.com 1.10,2013-07-26 02:58:00,
2013-07-25 23:13:00,52.6,50.0,30.03,ENE,69,3.0,-999.0,92,-99.99,,,0.00,weatherlink.com 1.10,2013-07-26 03:13:00,
2013-07-25 23:28:00,52.4,51.0,30.03,East,80,4.0,-999.0,93,-99.99,,,0.00,weatherlink.com 1.10,2013-07-26 03:28:00,
2013-07-25 23:43:00,52.4,50.0,30.03,NE,45,2.0,-999.0,92,-99.99,,,0.00,weatherlink.com 1.10,2013-07-26 03:43:00,
2013-07-25 23:58:00,52.4,50.0,30.03,NE,48,3.0,-999.0,92,-99.99,,,0.00,weatherlink.com 1.10,2013-07-26 03:58:00,